createdAt,value
2022-10-02T00:00:37.807Z,1011.98
2022-10-02T00:02:35.819Z,1011.98
2022-10-02T00:04:35.415Z,1011.96
2022-10-02T00:06:35.901Z,1011.96
2022-10-02T00:08:35.814Z,1012.1
2022-10-02T00:10:35.241Z,1012.1
2022-10-02T00:12:35.664Z,1012.11
2022-10-02T00:14:35.380Z,1012.11
2022-10-02T00:16:36.424Z,1012.07
2022-10-02T00:18:35.144Z,1012.07
2022-10-02T00:20:35.339Z,1012.05
2022-10-02T00:22:35.706Z,1012.05
2022-10-02T00:24:35.056Z,1012.08
2022-10-02T00:26:35.452Z,1012.08
2022-10-02T00:28:35.719Z,1012.14
2022-10-02T00:30:35.909Z,1012.14
2022-10-02T00:32:35.522Z,1012.27
2022-10-02T00:34:38.000Z,1012.27
2022-10-02T00:36:35.303Z,1012.25
2022-10-02T00:38:35.228Z,1012.25
2022-10-02T00:40:35.398Z,1012.28
2022-10-02T00:42:35.905Z,1012.28
2022-10-02T00:44:35.268Z,1012.3
2022-10-02T00:46:36.113Z,1012.3
2022-10-02T00:48:35.506Z,1012.3
2022-10-02T00:50:36.014Z,1012.3
2022-10-02T00:52:35.906Z,1012.31
2022-10-02T00:54:35.912Z,1012.31
2022-10-02T00:56:35.228Z,1012.33
2022-10-02T00:58:35.698Z,1012.33
2022-10-02T01:00:37.141Z,1012.37
2022-10-02T01:02:35.785Z,1012.37
2022-10-02T01:04:35.441Z,1012.35
2022-10-02T01:06:35.814Z,1012.35
2022-10-02T01:08:35.416Z,1012.29
2022-10-02T01:10:35.043Z,1012.29
2022-10-02T01:12:35.695Z,1012.31
2022-10-02T01:14:35.777Z,1012.31
2022-10-02T01:16:35.864Z,1012.18
2022-10-02T01:18:35.084Z,1012.18
2022-10-02T01:20:35.302Z,1012.33
2022-10-02T01:22:35.076Z,1012.33
2022-10-02T01:24:35.285Z,1012.24
2022-10-02T01:26:35.787Z,1012.24
2022-10-02T01:28:35.998Z,1012.36
2022-10-02T01:30:35.319Z,1012.36
2022-10-02T01:32:35.206Z,1012.36
2022-10-02T01:34:35.241Z,1012.36
2022-10-02T01:36:35.310Z,1012.34
2022-10-02T01:38:35.266Z,1012.34
2022-10-02T01:40:35.562Z,1012.42
2022-10-02T01:42:34.998Z,1012.42
2022-10-02T01:44:35.727Z,1012.49
2022-10-02T01:46:36.430Z,1012.49
2022-10-02T01:48:35.199Z,1012.51
2022-10-02T01:50:35.388Z,1012.51
2022-10-02T01:52:35.397Z,1012.55
2022-10-02T01:54:35.005Z,1012.55
2022-10-02T01:56:36.110Z,1012.59
2022-10-02T01:58:35.896Z,1012.59
2022-10-02T02:00:38.489Z,1012.61
2022-10-02T02:02:35.636Z,1012.61
2022-10-02T02:04:35.724Z,1012.66
2022-10-02T02:06:35.286Z,1012.66
2022-10-02T02:08:35.468Z,1012.65
2022-10-02T02:10:35.488Z,1012.65
2022-10-02T02:12:35.834Z,1012.62
2022-10-02T02:14:35.655Z,1012.62
2022-10-02T02:16:36.207Z,1012.66
2022-10-02T02:18:35.984Z,1012.66
2022-10-02T02:20:35.688Z,1012.75
2022-10-02T02:22:35.730Z,1012.75
2022-10-02T02:24:35.353Z,1012.7
2022-10-02T02:26:36.314Z,1012.7
2022-10-02T02:28:35.452Z,1012.63
2022-10-02T02:30:35.638Z,1012.69
2022-10-02T02:32:35.935Z,1012.69
2022-10-02T02:34:35.551Z,1012.78
2022-10-02T02:36:36.165Z,1012.78
2022-10-02T02:38:35.019Z,1012.72
2022-10-02T02:40:35.074Z,1012.72
2022-10-02T02:42:40.302Z,1012.76
2022-10-02T02:44:35.980Z,1012.76
2022-10-02T02:46:36.404Z,1012.84
2022-10-02T02:48:35.451Z,1012.84
2022-10-02T02:50:35.733Z,1012.76
2022-10-02T02:52:35.258Z,1012.76
2022-10-02T02:54:35.978Z,1012.76
2022-10-02T02:56:35.553Z,1012.76
2022-10-02T02:58:35.428Z,1012.85
2022-10-02T03:00:38.513Z,1012.85
2022-10-02T03:02:36.479Z,1012.72
2022-10-02T03:04:35.186Z,1012.72
2022-10-02T03:06:35.957Z,1012.75
2022-10-02T03:08:35.193Z,1012.75
2022-10-02T03:10:35.606Z,1012.83
2022-10-02T03:12:35.063Z,1012.83
2022-10-02T03:14:35.877Z,1012.88
2022-10-02T03:16:36.164Z,1012.88
2022-10-02T03:18:35.227Z,1012.9
2022-10-02T03:20:35.366Z,1012.9
2022-10-02T03:22:35.683Z,1012.89
2022-10-02T03:24:34.996Z,1012.89
2022-10-02T03:26:35.472Z,1012.88
2022-10-02T03:29:02.329Z,1012.88
2022-10-02T03:30:35.126Z,1012.88
2022-10-02T03:32:35.624Z,1012.88
2022-10-02T03:34:35.139Z,1012.91
2022-10-02T03:36:35.686Z,1012.91
2022-10-02T03:38:35.489Z,1012.91
2022-10-02T03:40:35.501Z,1012.91
2022-10-02T03:42:35.953Z,1012.9
2022-10-02T03:44:35.268Z,1012.9
2022-10-02T03:46:36.074Z,1012.81
2022-10-02T03:48:35.042Z,1012.81
2022-10-02T03:50:36.611Z,1012.86
2022-10-02T03:52:35.251Z,1012.86
2022-10-02T03:54:35.378Z,1012.94
2022-10-02T03:56:35.866Z,1012.94
2022-10-02T03:58:35.168Z,1012.77
2022-10-02T04:00:38.483Z,1012.77
2022-10-02T04:02:35.574Z,1012.83
2022-10-02T04:04:35.802Z,1012.83
2022-10-02T04:06:35.416Z,1012.91
2022-10-02T04:08:35.488Z,1012.91
2022-10-02T04:10:35.407Z,1012.96
2022-10-02T04:12:35.908Z,1012.96
2022-10-02T04:14:35.755Z,1012.95
2022-10-02T04:16:36.058Z,1012.95
2022-10-02T04:18:35.955Z,1013.11
2022-10-02T04:20:35.721Z,1013.11
2022-10-02T04:22:35.174Z,1013.08
2022-10-02T04:24:35.308Z,1013.08
2022-10-02T04:26:35.884Z,1013.13
2022-10-02T04:28:35.599Z,1013.13
2022-10-02T04:30:35.746Z,1013.07
2022-10-02T04:32:35.563Z,1013.07
2022-10-02T04:34:35.389Z,1013.16
2022-10-02T04:36:35.912Z,1013.16
2022-10-02T04:38:35.273Z,1013.27
2022-10-02T04:40:35.246Z,1013.27
2022-10-02T04:42:35.349Z,1013.26
2022-10-02T04:44:35.470Z,1013.26
2022-10-02T04:46:36.126Z,1013.31
2022-10-02T04:48:35.582Z,1013.31
2022-10-02T04:50:35.349Z,1013.28
2022-10-02T04:52:35.811Z,1013.28
2022-10-02T04:54:35.655Z,1013.3
2022-10-02T04:56:35.920Z,1013.3
2022-10-02T04:58:35.597Z,1013.45
2022-10-02T05:00:38.266Z,1013.45
2022-10-02T05:02:35.773Z,1013.39
2022-10-02T05:04:38.145Z,1013.39
2022-10-02T05:06:36.352Z,1013.43
2022-10-02T05:08:36.095Z,1013.43
2022-10-02T05:10:36.028Z,1013.72
2022-10-02T05:12:35.657Z,1013.72
2022-10-02T05:14:35.987Z,1013.67
2022-10-02T05:16:36.548Z,1013.67
2022-10-02T05:18:40.547Z,1013.68
2022-10-02T05:20:35.428Z,1013.68
2022-10-02T05:22:35.548Z,1013.77
2022-10-02T05:24:35.754Z,1013.77
2022-10-02T05:26:37.406Z,1013.81
2022-10-02T05:28:35.436Z,1013.81
2022-10-02T05:30:35.748Z,1013.85
2022-10-02T05:32:35.252Z,1013.85
2022-10-02T05:34:35.988Z,1013.82
2022-10-02T05:36:36.146Z,1013.82
2022-10-02T05:38:35.368Z,1014.02
2022-10-02T05:40:35.801Z,1014.02
2022-10-02T05:42:38.198Z,1013.91
2022-10-02T05:44:35.606Z,1013.91
2022-10-02T05:46:35.565Z,1013.95
2022-10-02T05:48:35.423Z,1013.95
2022-10-02T05:50:35.403Z,1013.94
2022-10-02T05:52:35.791Z,1014.04
2022-10-02T05:54:35.250Z,1014.04
2022-10-02T05:56:35.861Z,1013.95
2022-10-02T05:58:35.138Z,1013.95
2022-10-02T06:00:39.023Z,1014.02
2022-10-02T06:02:39.302Z,1014.02
2022-10-02T06:04:35.342Z,1014.05
2022-10-02T06:06:35.986Z,1014.05
2022-10-02T06:08:35.873Z,1014.13
2022-10-02T06:10:35.889Z,1014.13
2022-10-02T06:12:34.988Z,1014.03
2022-10-02T06:14:35.358Z,1014.03
2022-10-02T06:16:36.091Z,1014.11
2022-10-02T06:18:35.237Z,1014.11
2022-10-02T06:20:37.835Z,1014.17
2022-10-02T06:22:35.880Z,1014.17
2022-10-02T06:24:35.503Z,1014.24
2022-10-02T06:26:36.368Z,1014.24
2022-10-02T06:28:35.388Z,1014.38
2022-10-02T06:30:35.422Z,1014.38
2022-10-02T06:32:35.695Z,1014.38
2022-10-02T06:34:35.813Z,1014.38
2022-10-02T06:36:35.717Z,1014.36
2022-10-02T06:38:35.157Z,1014.36
2022-10-02T06:40:35.641Z,1014.42
2022-10-02T06:42:35.837Z,1014.42
2022-10-02T06:44:35.735Z,1014.48
2022-10-02T06:46:35.849Z,1014.48
2022-10-02T06:48:35.927Z,1014.48
2022-10-02T06:50:35.228Z,1014.48
2022-10-02T06:52:38.171Z,1014.62
2022-10-02T06:54:35.496Z,1014.62
2022-10-02T06:56:35.982Z,1014.59
2022-10-02T06:58:35.871Z,1014.59
2022-10-02T07:00:38.508Z,1014.67
2022-10-02T07:02:35.583Z,1014.67
2022-10-02T07:04:35.889Z,1014.59
2022-10-02T07:06:35.464Z,1014.59
2022-10-02T07:08:35.460Z,1014.69
2022-10-02T07:10:35.156Z,1014.69
2022-10-02T07:12:35.597Z,1014.71
2022-10-02T07:14:35.289Z,1014.71
2022-10-02T07:16:36.083Z,1014.85
2022-10-02T07:18:35.048Z,1014.85
2022-10-02T07:20:35.138Z,1014.86
2022-10-02T07:23:07.940Z,1014.86
2022-10-02T07:24:36.517Z,1014.86
2022-10-02T07:26:36.168Z,1014.86
2022-10-02T07:28:35.580Z,1014.99
2022-10-02T07:30:35.170Z,1014.99
2022-10-02T07:32:35.978Z,1015.04
2022-10-02T07:34:35.481Z,1015.04
2022-10-02T07:36:35.440Z,1015.05
2022-10-02T07:38:35.347Z,1015.05
2022-10-02T07:40:35.561Z,1015
2022-10-02T07:42:35.275Z,1015
2022-10-02T07:44:35.515Z,1014.9
2022-10-02T07:46:36.410Z,1014.9
2022-10-02T07:48:35.287Z,1014.96
2022-10-02T07:50:35.231Z,1014.96
2022-10-02T07:52:35.263Z,1015.15
2022-10-02T07:54:35.484Z,1015.15
2022-10-02T07:56:35.312Z,1015.17
2022-10-02T07:58:35.119Z,1015.17
2022-10-02T08:00:38.148Z,1015.26
2022-10-02T08:02:35.849Z,1015.26
2022-10-02T08:04:37.296Z,1015.25
2022-10-02T08:06:35.759Z,1015.25
2022-10-02T08:08:35.898Z,1015.38
2022-10-02T08:10:35.134Z,1015.38
2022-10-02T08:12:35.985Z,1015.36
2022-10-02T08:14:35.915Z,1015.36
2022-10-02T08:16:35.974Z,1015.42
2022-10-02T08:19:07.224Z,1015.46
2022-10-02T08:20:40.476Z,1015.46
2022-10-02T08:22:35.597Z,1015.46
2022-10-02T08:24:35.727Z,1015.58
2022-10-02T08:26:36.220Z,1015.58
2022-10-02T08:28:35.559Z,1015.61
2022-10-02T08:30:35.508Z,1015.61
2022-10-02T08:32:35.455Z,1015.71
2022-10-02T08:34:35.969Z,1015.71
2022-10-02T08:36:35.706Z,1015.68
2022-10-02T08:38:35.357Z,1015.68
2022-10-02T08:40:35.733Z,1015.77
2022-10-02T08:42:35.894Z,1015.77
2022-10-02T08:44:36.472Z,1015.95
2022-10-02T08:46:36.079Z,1015.95
2022-10-02T08:48:35.682Z,1015.85
2022-10-02T08:50:35.148Z,1015.85
2022-10-02T08:52:35.710Z,1015.95
2022-10-02T08:54:35.190Z,1015.95
2022-10-02T08:56:42.384Z,1015.84
2022-10-02T08:58:35.390Z,1015.84
2022-10-02T09:00:38.562Z,1015.9
2022-10-02T09:02:36.239Z,1015.9
2022-10-02T09:04:35.458Z,1016.07
2022-10-02T09:06:36.215Z,1016.07
2022-10-02T09:08:35.169Z,1016.09
2022-10-02T09:10:35.382Z,1016.14
2022-10-02T09:12:35.543Z,1016.14
2022-10-02T09:14:35.846Z,1016.25
2022-10-02T09:16:36.071Z,1016.25
2022-10-02T09:18:35.439Z,1016.32
2022-10-02T09:20:35.806Z,1016.32
2022-10-02T09:22:35.404Z,1016.26
2022-10-02T09:24:35.551Z,1016.26
2022-10-02T09:26:35.829Z,1016.37
2022-10-02T09:28:35.760Z,1016.37
2022-10-02T09:30:36.005Z,1016.28
2022-10-02T09:32:35.429Z,1016.28
2022-10-02T09:34:35.047Z,1016.37
2022-10-02T09:36:36.137Z,1016.37
2022-10-02T09:38:38.980Z,1016.41
2022-10-02T09:40:35.629Z,1016.41
2022-10-02T09:42:35.301Z,1016.52
2022-10-02T09:44:35.120Z,1016.52
2022-10-02T09:46:36.379Z,1016.55
2022-10-02T09:48:35.096Z,1016.55
2022-10-02T09:50:36.882Z,1016.51
2022-10-02T09:52:39.321Z,1016.51
2022-10-02T09:54:35.538Z,1016.55
2022-10-02T09:56:37.169Z,1016.55
2022-10-02T09:58:35.948Z,1016.5
2022-10-02T10:00:39.347Z,1016.5
2022-10-02T10:02:37.408Z,1016.6
2022-10-02T10:04:54.073Z,1016.6
2022-10-02T10:06:35.421Z,1016.77
2022-10-02T10:08:35.607Z,1016.77
2022-10-02T10:10:35.634Z,1016.69
2022-10-02T10:12:36.000Z,1016.69
2022-10-02T10:14:36.047Z,1016.86
2022-10-02T10:16:35.798Z,1016.86
2022-10-02T10:18:35.750Z,1016.88
2022-10-02T10:20:35.524Z,1016.88
2022-10-02T10:22:35.108Z,1016.93
2022-10-02T10:24:35.298Z,1016.93
2022-10-02T10:26:35.807Z,1016.93
2022-10-02T10:28:35.589Z,1016.93
2022-10-02T10:30:35.752Z,1017.03
2022-10-02T10:32:35.440Z,1017.03
2022-10-02T10:34:35.870Z,1016.96
2022-10-02T10:36:35.836Z,1016.96
2022-10-02T10:38:35.526Z,1017.05
2022-10-02T10:40:35.492Z,1017.05
2022-10-02T10:42:49.860Z,1017.02
2022-10-02T10:44:35.372Z,1017.02
2022-10-02T10:46:36.215Z,1017.15
2022-10-02T10:48:36.719Z,1017.15
2022-10-02T10:50:36.074Z,1017.2
2022-10-02T10:52:35.429Z,1017.2
2022-10-02T10:54:36.299Z,1017.04
2022-10-02T10:56:35.361Z,1017.04
2022-10-02T10:58:35.933Z,1017.23
2022-10-02T11:00:37.737Z,1017.23
2022-10-02T11:02:35.856Z,1017.24
2022-10-02T11:04:35.648Z,1017.24
2022-10-02T11:06:35.605Z,1017.39
2022-10-02T11:08:36.322Z,1017.39
2022-10-02T11:10:35.680Z,1017.37
2022-10-02T11:12:38.219Z,1017.37
2022-10-02T11:14:36.398Z,1017.5
2022-10-02T11:16:36.548Z,1017.5
2022-10-02T11:18:35.655Z,1017.47
2022-10-02T11:20:35.715Z,1017.47
2022-10-02T11:22:35.935Z,1017.63
2022-10-02T11:24:36.047Z,1017.63
2022-10-02T11:26:35.184Z,1017.56
2022-10-02T11:28:36.412Z,1017.56
2022-10-02T11:30:40.834Z,1017.51
2022-10-02T11:32:36.723Z,1017.51
2022-10-02T11:34:35.222Z,1017.58
2022-10-02T11:36:35.660Z,1017.58
2022-10-02T11:38:38.118Z,1017.64
2022-10-02T11:40:35.749Z,1017.64
2022-10-02T11:42:35.292Z,1017.54
2022-10-02T11:44:35.485Z,1017.54
2022-10-02T11:46:35.943Z,1017.65
2022-10-02T11:48:35.874Z,1017.65
2022-10-02T11:50:35.480Z,1017.71
2022-10-02T11:52:35.882Z,1017.71
2022-10-02T11:54:35.807Z,1017.67
2022-10-02T11:56:35.573Z,1017.67
2022-10-02T11:58:35.277Z,1017.61
2022-10-02T12:00:40.847Z,1017.61
2022-10-02T12:02:39.540Z,1017.64
2022-10-02T12:04:35.229Z,1017.64
2022-10-02T12:06:35.190Z,1017.75
2022-10-02T12:08:35.604Z,1017.75
2022-10-02T12:10:35.370Z,1017.76
2022-10-02T12:12:39.322Z,1017.76
2022-10-02T12:14:35.663Z,1017.84
2022-10-02T12:16:35.636Z,1017.84
2022-10-02T12:18:35.577Z,1017.88
2022-10-02T12:20:35.373Z,1017.88
2022-10-02T12:22:35.979Z,1018.01
2022-10-02T12:24:35.412Z,1018.01
2022-10-02T12:26:35.535Z,1018.01
2022-10-02T12:28:36.014Z,1018.01
2022-10-02T12:30:35.240Z,1018.09
2022-10-02T12:32:36.442Z,1018.04
2022-10-02T12:34:35.710Z,1018.04
2022-10-02T12:36:36.026Z,1018.18
2022-10-02T12:38:36.699Z,1018.18
2022-10-02T12:40:36.019Z,1018.31
2022-10-02T12:42:35.223Z,1018.31
2022-10-02T12:44:35.854Z,1018.23
2022-10-02T12:46:35.293Z,1018.23
2022-10-02T12:48:35.057Z,1018.3
2022-10-02T12:50:35.961Z,1018.3
2022-10-02T12:52:35.668Z,1018.38
2022-10-02T12:54:35.238Z,1018.38
2022-10-02T12:56:35.791Z,1018.35
2022-10-02T12:58:35.486Z,1018.35
2022-10-02T13:00:38.171Z,1018.49
2022-10-02T13:03:07.913Z,1018.49
2022-10-02T13:04:36.214Z,1018.45
2022-10-02T13:06:36.324Z,1018.45
2022-10-02T13:08:35.090Z,1018.52
2022-10-02T13:10:37.943Z,1018.52
2022-10-02T13:12:37.433Z,1018.55
2022-10-02T13:14:35.530Z,1018.55
2022-10-02T13:16:35.409Z,1018.52
2022-10-02T13:18:36.646Z,1018.52
2022-10-02T13:20:36.909Z,1018.54
2022-10-02T13:22:35.704Z,1018.54
2022-10-02T13:24:39.425Z,1018.54
2022-10-02T13:26:37.543Z,1018.54
2022-10-02T13:28:41.182Z,1018.64
2022-10-02T13:30:40.971Z,1018.64
2022-10-02T13:32:44.240Z,1018.65
2022-10-02T13:34:38.654Z,1018.65
2022-10-02T13:36:35.516Z,1018.69
2022-10-02T13:38:35.496Z,1018.69
2022-10-02T13:40:35.516Z,1018.71
2022-10-02T13:42:35.891Z,1018.71
2022-10-02T13:44:39.155Z,1018.7
2022-10-02T13:46:36.457Z,1018.7
2022-10-02T13:48:35.873Z,1018.77
2022-10-02T13:50:40.255Z,1018.77
2022-10-02T13:52:35.166Z,1018.68
2022-10-02T13:54:35.242Z,1018.68
2022-10-02T13:56:38.272Z,1018.85
2022-10-02T13:58:35.997Z,1018.85
2022-10-02T14:00:44.834Z,1018.85
2022-10-02T14:02:36.253Z,1018.85
2022-10-02T14:04:38.512Z,1018.88
2022-10-02T14:06:35.998Z,1018.88
2022-10-02T14:08:36.682Z,1018.94
2022-10-02T14:10:36.375Z,1018.94
2022-10-02T14:12:35.594Z,1018.96
2022-10-02T14:14:37.832Z,1018.96
2022-10-02T14:16:36.026Z,1018.99
2022-10-02T14:18:35.721Z,1018.99
2022-10-02T14:20:36.792Z,1018.96
2022-10-02T14:22:35.757Z,1018.96
2022-10-02T14:24:37.322Z,1019.01
2022-10-02T14:26:37.253Z,1019.01
2022-10-02T14:28:37.582Z,1019.03
2022-10-02T14:30:50.564Z,1019.03
2022-10-02T14:32:37.174Z,1019.04
2022-10-02T14:34:35.987Z,1019.04
2022-10-02T14:36:35.336Z,1019.1
2022-10-02T14:38:37.645Z,1019.1
2022-10-02T14:40:36.426Z,1019.05
2022-10-02T14:42:35.424Z,1019.05
2022-10-02T14:44:36.217Z,1019.13
2022-10-02T14:46:36.123Z,1019.13
2022-10-02T14:48:37.069Z,1019.05
2022-10-02T14:50:35.631Z,1019.05
2022-10-02T14:52:37.420Z,1019.24
2022-10-02T14:54:35.747Z,1019.24
2022-10-02T14:56:35.838Z,1019.26
2022-10-02T14:58:35.436Z,1019.26
2022-10-02T15:00:38.552Z,1019.29
2022-10-02T15:02:35.933Z,1019.29
2022-10-02T15:04:35.911Z,1019.27
2022-10-02T15:06:35.775Z,1019.27
2022-10-02T15:08:35.137Z,1019.44
2022-10-02T15:10:36.238Z,1019.44
2022-10-02T15:12:35.296Z,1019.38
2022-10-02T15:14:35.410Z,1019.38
2022-10-02T15:16:35.604Z,1019.38
2022-10-02T15:18:35.331Z,1019.38
2022-10-02T15:20:36.053Z,1019.57
2022-10-02T15:22:35.695Z,1019.57
2022-10-02T15:24:35.821Z,1019.56
2022-10-02T15:26:35.894Z,1019.56
2022-10-02T15:29:00.064Z,1019.56
2022-10-02T15:30:35.225Z,1019.56
2022-10-02T15:32:35.807Z,1019.67
2022-10-02T15:34:35.463Z,1019.67
2022-10-02T15:36:34.955Z,1019.86
2022-10-02T15:38:35.766Z,1019.86
2022-10-02T15:40:35.858Z,1019.83
2022-10-02T15:42:35.387Z,1019.83
2022-10-02T15:44:35.200Z,1019.87
2022-10-02T15:46:36.248Z,1019.87
2022-10-02T15:48:35.497Z,1020.04
2022-10-02T15:50:35.919Z,1020.04
2022-10-02T15:52:35.789Z,1019.92
2022-10-02T15:54:35.034Z,1019.92
2022-10-02T15:56:35.732Z,1020.03
2022-10-02T15:58:36.010Z,1020.1
2022-10-02T16:00:37.636Z,1020.1
2022-10-02T16:02:35.737Z,1020.2
2022-10-02T16:04:35.949Z,1020.2
2022-10-02T16:06:35.546Z,1020.2
2022-10-02T16:08:35.680Z,1020.2
2022-10-02T16:10:35.350Z,1020.19
2022-10-02T16:12:35.453Z,1020.19
2022-10-02T16:14:35.646Z,1020.33
2022-10-02T16:16:37.036Z,1020.33
2022-10-02T16:18:35.210Z,1020.37
2022-10-02T16:20:35.103Z,1020.37
2022-10-02T16:22:40.513Z,1020.4
2022-10-02T16:24:35.596Z,1020.4
2022-10-02T16:26:36.265Z,1020.42
2022-10-02T16:28:35.621Z,1020.42
2022-10-02T16:30:35.385Z,1020.44
2022-10-02T16:32:35.701Z,1020.44
2022-10-02T16:34:35.810Z,1020.51
2022-10-02T16:36:36.136Z,1020.51
2022-10-02T16:38:35.833Z,1020.48
2022-10-02T16:40:35.185Z,1020.48
2022-10-02T16:42:35.573Z,1020.71
2022-10-02T16:44:35.170Z,1020.71
2022-10-02T16:46:35.783Z,1020.69
2022-10-02T16:48:35.678Z,1020.69
2022-10-02T16:50:39.126Z,1020.8
2022-10-02T16:52:35.457Z,1020.8
2022-10-02T16:54:35.657Z,1020.91
2022-10-02T16:56:35.707Z,1020.91
2022-10-02T16:58:35.282Z,1020.95
2022-10-02T17:00:39.719Z,1020.95
2022-10-02T17:02:52.427Z,1020.92
2022-10-02T17:04:35.502Z,1020.92
2022-10-02T17:06:36.417Z,1021.09
2022-10-02T17:08:35.670Z,1021.09
2022-10-02T17:10:41.465Z,1021.15
2022-10-02T17:12:36.067Z,1021.15
2022-10-02T17:14:36.084Z,1021.11
2022-10-02T17:16:40.874Z,1021.11
2022-10-02T17:18:35.558Z,1021.3
2022-10-02T17:20:35.965Z,1021.3
2022-10-02T17:22:38.591Z,1021.37
2022-10-02T17:24:35.211Z,1021.37
2022-10-02T17:26:35.756Z,1021.3
2022-10-02T17:28:36.805Z,1021.3
2022-10-02T17:30:35.977Z,1021.37
2022-10-02T17:32:35.169Z,1021.37
2022-10-02T17:34:36.361Z,1021.46
2022-10-02T17:36:36.568Z,1021.46
2022-10-02T17:38:35.669Z,1021.48
2022-10-02T17:40:37.398Z,1021.48
2022-10-02T17:42:35.511Z,1021.62
2022-10-02T17:44:35.702Z,1021.62
2022-10-02T17:46:36.241Z,1021.62
2022-10-02T17:48:35.831Z,1021.62
2022-10-02T17:50:35.698Z,1021.65
2022-10-02T17:52:36.638Z,1021.65
2022-10-02T17:54:35.540Z,1021.75
2022-10-02T17:56:35.569Z,1021.75
2022-10-02T17:58:35.780Z,1021.86
2022-10-02T18:00:41.384Z,1021.86
2022-10-02T18:02:35.467Z,1021.81
2022-10-02T18:04:35.537Z,1021.81
2022-10-02T18:06:35.430Z,1021.83
2022-10-02T18:08:41.698Z,1021.83
2022-10-02T18:10:35.671Z,1021.79
2022-10-02T18:12:37.242Z,1021.79
2022-10-02T18:14:35.728Z,1021.98
2022-10-02T18:16:36.418Z,1021.98
2022-10-02T18:18:35.819Z,1021.87
2022-10-02T18:20:35.778Z,1021.87
2022-10-02T18:22:36.140Z,1021.89
2022-10-02T18:24:35.769Z,1021.89
2022-10-02T18:26:42.094Z,1022.11
2022-10-02T18:28:36.512Z,1022.11
2022-10-02T18:30:35.772Z,1022.03
2022-10-02T18:32:36.762Z,1022.03
2022-10-02T18:34:38.248Z,1021.93
2022-10-02T18:36:37.275Z,1021.93
2022-10-02T18:38:35.209Z,1022.16
2022-10-02T18:40:41.789Z,1022.16
2022-10-02T18:42:36.133Z,1022.18
2022-10-02T18:44:35.840Z,1022.18
2022-10-02T18:46:35.913Z,1022.04
2022-10-02T18:48:41.819Z,1022.04
2022-10-02T18:50:35.415Z,1022.12
2022-10-02T18:52:35.707Z,1022.12
2022-10-02T18:54:36.088Z,1022.23
2022-10-02T18:56:37.398Z,1022.23
2022-10-02T18:58:36.107Z,1022.35
2022-10-02T19:00:38.826Z,1022.35
2022-10-02T19:02:35.728Z,1022.43
2022-10-02T19:04:35.108Z,1022.43
2022-10-02T19:06:38.008Z,1022.5
2022-10-02T19:08:35.470Z,1022.5
2022-10-02T19:10:35.994Z,1022.41
2022-10-02T19:12:35.362Z,1022.41
2022-10-02T19:14:35.555Z,1022.52
2022-10-02T19:16:35.471Z,1022.52
2022-10-02T19:18:35.065Z,1022.62
2022-10-02T19:20:35.971Z,1022.62
2022-10-02T19:22:35.008Z,1022.51
2022-10-02T19:24:35.435Z,1022.58
2022-10-02T19:26:35.585Z,1022.58
2022-10-02T19:28:35.898Z,1022.72
2022-10-02T19:30:35.698Z,1022.72
2022-10-02T19:32:35.640Z,1022.72
2022-10-02T19:34:35.650Z,1022.72
2022-10-02T19:36:35.334Z,1022.6
2022-10-02T19:38:35.895Z,1022.6
2022-10-02T19:40:35.835Z,1022.82
2022-10-02T19:42:35.686Z,1022.82
2022-10-02T19:44:35.082Z,1022.83
2022-10-02T19:46:35.629Z,1022.83
2022-10-02T19:48:35.828Z,1022.8
2022-10-02T19:50:35.713Z,1022.8
2022-10-02T19:52:35.160Z,1022.78
2022-10-02T19:54:35.581Z,1022.78
2022-10-02T19:56:35.961Z,1022.82
2022-10-02T19:58:35.174Z,1022.82
2022-10-02T20:00:40.404Z,1022.9
2022-10-02T20:02:35.515Z,1022.9
2022-10-02T20:04:35.936Z,1022.9
2022-10-02T20:06:35.864Z,1022.9
2022-10-02T20:08:40.851Z,1023.03
2022-10-02T20:10:35.317Z,1023.03
2022-10-02T20:12:35.673Z,1023.08
2022-10-02T20:14:35.558Z,1023.08
2022-10-02T20:16:36.056Z,1023.16
2022-10-02T20:18:35.921Z,1023.16
2022-10-02T20:20:35.730Z,1023.16
2022-10-02T20:22:35.017Z,1023.16
2022-10-02T20:24:35.154Z,1023.21
2022-10-02T20:26:35.837Z,1023.21
2022-10-02T20:28:35.687Z,1023.24
2022-10-02T20:30:35.565Z,1023.24
2022-10-02T20:32:35.230Z,1023.22
2022-10-02T20:34:35.920Z,1023.22
2022-10-02T20:36:35.771Z,1023.34
2022-10-02T20:38:35.794Z,1023.34
2022-10-02T20:40:36.597Z,1023.35
2022-10-02T20:42:35.526Z,1023.35
2022-10-02T20:44:35.504Z,1023.45
2022-10-02T20:46:35.832Z,1023.45
2022-10-02T20:48:55.713Z,1023.53
2022-10-02T20:50:35.613Z,1023.53
2022-10-02T20:52:35.713Z,1023.64
2022-10-02T20:54:35.236Z,1023.64
2022-10-02T20:56:35.751Z,1023.57
2022-10-02T20:58:35.839Z,1023.57
2022-10-02T21:00:38.203Z,1023.64
2022-10-02T21:02:35.467Z,1023.64
2022-10-02T21:04:35.856Z,1023.68
2022-10-02T21:06:35.995Z,1023.68
2022-10-02T21:08:35.550Z,1023.63
2022-10-02T21:10:35.581Z,1023.63
2022-10-02T21:12:35.570Z,1023.71
2022-10-02T21:14:35.243Z,1023.71
2022-10-02T21:16:36.999Z,1023.81
2022-10-02T21:18:35.000Z,1023.81
2022-10-02T21:21:02.340Z,1023.91
2022-10-02T21:22:35.223Z,1023.91
2022-10-02T21:24:35.442Z,1023.93
2022-10-02T21:26:36.060Z,1023.93
2022-10-02T21:28:35.516Z,1023.98
2022-10-02T21:30:36.310Z,1023.98
2022-10-02T21:32:35.490Z,1024.07
2022-10-02T21:34:35.351Z,1024.07
2022-10-02T21:36:35.804Z,1024.02
2022-10-02T21:38:35.204Z,1024.02
2022-10-02T21:40:35.537Z,1024.08
2022-10-02T21:42:35.762Z,1024.08
2022-10-02T21:44:36.037Z,1024.03
2022-10-02T21:46:35.900Z,1024.03
2022-10-02T21:48:35.433Z,1024.05
2022-10-02T21:50:35.381Z,1024.05
2022-10-02T21:52:35.182Z,1024.14
2022-10-02T21:54:35.285Z,1024.14
2022-10-02T21:56:35.147Z,1024.09
2022-10-02T21:58:35.517Z,1024.09
2022-10-02T22:00:45.223Z,1024.17
2022-10-02T22:02:42.830Z,1024.17
2022-10-02T22:04:35.838Z,1024.21
2022-10-02T22:06:35.919Z,1024.21
2022-10-02T22:08:35.133Z,1024.26
2022-10-02T22:10:35.392Z,1024.26
2022-10-02T22:12:34.991Z,1024.28
2022-10-02T22:14:35.521Z,1024.28
2022-10-02T22:16:36.489Z,1024.18
2022-10-02T22:18:35.005Z,1024.18
2022-10-02T22:20:35.088Z,1024.15
2022-10-02T22:22:35.709Z,1024.15
2022-10-02T22:24:35.302Z,1024.18
2022-10-02T22:26:35.461Z,1024.18
2022-10-02T22:28:35.877Z,1024.17
2022-10-02T22:30:35.659Z,1024.17
2022-10-02T22:32:35.834Z,1024.27
2022-10-02T22:34:35.328Z,1024.27
2022-10-02T22:36:35.239Z,1024.38
2022-10-02T22:38:35.552Z,1024.38
2022-10-02T22:40:35.791Z,1024.36
2022-10-02T22:42:35.874Z,1024.36
2022-10-02T22:44:35.903Z,1024.37
2022-10-02T22:46:40.958Z,1024.46
2022-10-02T22:48:35.419Z,1024.46
2022-10-02T22:50:35.213Z,1024.44
2022-10-02T22:52:36.035Z,1024.44
2022-10-02T22:54:35.941Z,1024.47
2022-10-02T22:56:35.901Z,1024.47
2022-10-02T22:58:35.200Z,1024.53
2022-10-02T23:00:41.086Z,1024.53
2022-10-02T23:02:36.150Z,1024.61
2022-10-02T23:04:36.065Z,1024.61
2022-10-02T23:06:37.473Z,1024.55
2022-10-02T23:08:35.428Z,1024.55
2022-10-02T23:10:35.790Z,1024.56
2022-10-02T23:12:39.940Z,1024.56
2022-10-02T23:14:35.801Z,1024.55
2022-10-02T23:16:35.554Z,1024.55
2022-10-02T23:18:35.886Z,1024.53
2022-10-02T23:20:35.995Z,1024.53
2022-10-02T23:22:34.938Z,1024.46
2022-10-02T23:24:35.745Z,1024.46
2022-10-02T23:26:35.873Z,1024.48
2022-10-02T23:28:36.280Z,1024.48
2022-10-02T23:30:35.199Z,1024.44
2022-10-02T23:32:35.831Z,1024.44
2022-10-02T23:34:35.554Z,1024.51
2022-10-02T23:36:35.940Z,1024.51
2022-10-02T23:38:35.407Z,1024.49
2022-10-02T23:40:35.412Z,1024.49
2022-10-02T23:42:35.816Z,1024.38
2022-10-02T23:44:35.211Z,1024.38
2022-10-02T23:46:35.907Z,1024.41
2022-10-02T23:48:35.579Z,1024.41
2022-10-02T23:50:35.055Z,1024.45
2022-10-02T23:52:35.739Z,1024.45
2022-10-02T23:54:35.444Z,1024.45
2022-10-02T23:56:35.753Z,1024.45
2022-10-02T23:58:36.219Z,1024.43
